Time;durP1;ratioP1;P1;durP2;ratioP2;P2;SDS_P1;SDS_P2;PMS_P1;PMS_P2;Temp;Humidity;BMP_temperature;BMP_pressure;BME280_temperature;BME280_humidity;BME280_pressure;Samples;Min_cycle;Max_cycle;Signal;HPM_P1;HPM_P2
2023/09/24 00:00:32;;;;;;;10.93;4.57;;;13.20;99.90;;;;;;5108770;27;20035;-62
2023/09/24 00:02:58;;;;;;;10.15;7.57;;;13.20;99.90;;;;;;5126991;27;20039;-62
2023/09/24 00:05:24;;;;;;;12.90;9.00;;;13.20;99.90;;;;;;5125849;27;20038;-61
2023/09/24 00:07:50;;;;;;;8.98;7.35;;;13.20;99.90;;;;;;5126026;27;20467;-63
2023/09/24 00:10:16;;;;;;;11.93;9.00;;;13.10;99.90;;;;;;5106434;27;20035;-61
2023/09/24 00:12:42;;;;;;;15.05;9.45;;;13.00;99.90;;;;;;5126730;27;20141;-63
2023/09/24 00:15:08;;;;;;;14.43;8.10;;;13.10;99.90;;;;;;5127304;27;20127;-63
2023/09/24 00:17:34;;;;;;;13.32;8.25;;;13.00;99.90;;;;;;5127059;27;20087;-61
2023/09/24 00:20:00;;;;;;;10.90;8.18;;;13.00;99.90;;;;;;5126461;27;20035;-63
2023/09/24 00:22:26;;;;;;;19.15;7.90;;;13.00;99.90;;;;;;5127386;27;20035;-62
2023/09/24 00:24:51;;;;;;;9.93;4.80;;;12.90;99.90;;;;;;5126933;27;20622;-61
2023/09/24 00:27:17;;;;;;;10.73;7.30;;;13.00;99.90;;;;;;5127478;27;20023;-62
2023/09/24 00:29:43;;;;;;;9.48;6.80;;;12.80;99.90;;;;;;5126532;27;20676;-61
2023/09/24 00:32:09;;;;;;;7.45;6.47;;;12.90;99.90;;;;;;5126709;27;20395;-62
2023/09/24 00:34:35;;;;;;;8.27;6.38;;;12.80;99.90;;;;;;5107230;27;20043;-63
2023/09/24 00:37:00;;;;;;;9.20;6.32;;;12.70;99.90;;;;;;5122591;27;20389;-62
2023/09/24 00:39:26;;;;;;;7.50;6.13;;;12.80;99.90;;;;;;5125266;27;20501;-63
2023/09/24 00:41:52;;;;;;;9.55;6.00;;;12.80;99.90;;;;;;5125357;27;20042;-62
2023/09/24 00:44:17;;;;;;;7.82;5.82;;;12.80;99.90;;;;;;5126254;27;20047;-62
2023/09/24 00:46:44;;;;;;;7.43;5.30;;;12.70;99.90;;;;;;5125836;27;20043;-63
2023/09/24 00:49:15;;;;;;;10.27;5.90;;;12.60;99.90;;;;;;5125914;27;20042;-62
2023/09/24 00:51:42;;;;;;;9.02;5.70;;;12.60;99.90;;;;;;5126028;27;20043;-63
2023/09/24 00:54:10;;;;;;;10.50;5.13;;;12.60;99.90;;;;;;5126081;27;20524;-61
2023/09/24 00:56:36;;;;;;;8.32;5.35;;;13.00;99.90;;;;;;5108375;27;20027;-62
2023/09/24 00:59:03;;;;;;;8.82;4.75;;;12.50;99.90;;;;;;5125894;27;20027;-63
2023/09/24 01:01:29;;;;;;;8.75;5.05;;;12.40;99.90;;;;;;5125768;27;20366;-62
2023/09/24 01:03:55;;;;;;;9.18;5.05;;;12.40;99.90;;;;;;5108208;27;20042;-63
2023/09/24 01:06:21;;;;;;;6.03;4.78;;;12.50;99.90;;;;;;5126150;27;20451;-62
2023/09/24 01:08:48;;;;;;;7.88;5.25;;;12.50;99.90;;;;;;5126569;27;20071;-62
2023/09/24 01:11:14;;;;;;;7.72;3.58;;;12.30;99.90;;;;;;5125651;27;20036;-63
2023/09/24 01:13:44;;;;;;;8.65;5.05;;;12.30;99.90;;;;;;5125517;27;20079;-63
2023/09/24 01:16:11;;;;;;;8.68;5.05;;;12.30;99.90;;;;;;5125224;27;20067;-62
2023/09/24 01:18:39;;;;;;;7.72;4.80;;;12.40;99.90;;;;;;5125365;27;20027;-63
2023/09/24 01:21:16;;;;;;;7.68;5.22;;;12.40;99.90;;;;;;5124634;27;20023;-63
2023/09/24 01:23:45;;;;;;;9.77;3.28;;;12.40;99.90;;;;;;5125680;27;20058;-63
2023/09/24 01:26:12;;;;;;;10.75;4.70;;;12.30;99.90;;;;;;5124649;27;20030;-62
2023/09/24 01:28:39;;;;;;;9.07;5.07;;;12.30;99.90;;;;;;5123962;27;20054;-62
2023/09/24 01:31:06;;;;;;;8.68;5.28;;;12.30;99.90;;;;;;5125143;27;20035;-61
2023/09/24 01:33:32;;;;;;;6.68;5.13;;;12.30;99.90;;;;;;5125021;27;20091;-63
2023/09/24 01:35:58;;;;;;;9.93;5.70;;;12.30;99.90;;;;;;5125081;27;20462;-63
2023/09/24 01:38:25;;;;;;;6.55;2.95;;;12.20;99.90;;;;;;5125781;27;20043;-61
2023/09/24 01:40:52;;;;;;;6.93;3.28;;;12.20;99.90;;;;;;5125604;27;20066;-63
2023/09/24 01:43:18;;;;;;;7.65;4.82;;;12.20;99.90;;;;;;5125061;27;20043;-62
2023/09/24 01:45:44;;;;;;;6.90;4.70;;;12.20;99.90;;;;;;5125092;27;20062;-61
2023/09/24 01:48:11;;;;;;;8.80;4.80;;;12.10;99.90;;;;;;5124856;27;20436;-63
2023/09/24 01:50:37;;;;;;;7.28;5.13;;;12.30;99.90;;;;;;5125682;27;20027;-62
2023/09/24 01:53:04;;;;;;;6.25;4.63;;;12.10;99.90;;;;;;5125463;27;20088;-62
2023/09/24 01:55:31;;;;;;;8.00;5.20;;;12.10;99.90;;;;;;5125400;27;20359;-62
2023/09/24 01:58:01;;;;;;;8.18;4.65;;;12.10;99.90;;;;;;5124334;27;20078;-61
2023/09/24 02:00:26;;;;;;;7.57;2.95;;;12.10;99.90;;;;;;5125068;27;20042;-63
2023/09/24 02:02:59;;;;;;;5.07;2.75;;;12.00;99.90;;;;;;5125561;27;20035;-61
2023/09/24 02:05:30;;;;;;;8.35;4.72;;;12.00;99.90;;;;;;5124492;27;20496;-63
2023/09/24 02:07:56;;;;;;;8.07;4.80;;;12.10;99.90;;;;;;5124824;27;20046;-61
2023/09/24 02:10:22;;;;;;;7.80;4.40;;;12.00;99.90;;;;;;5125353;27;20062;-62
2023/09/24 02:12:48;;;;;;;8.18;5.03;;;12.00;99.90;;;;;;5125208;27;20454;-61
2023/09/24 02:15:18;;;;;;;6.63;4.65;;;11.90;99.90;;;;;;5125722;27;20122;-61
2023/09/24 02:17:48;;;;;;;9.93;5.00;;;12.00;99.90;;;;;;5124895;27;20031;-63
2023/09/24 02:20:32;;;;;;;6.30;4.72;;;11.90;99.90;;;;;;5106482;27;20061;-62
2023/09/24 02:23:00;;;;;;;7.65;4.53;;;11.80;99.90;;;;;;5124654;27;20154;-60
2023/09/24 02:25:31;;;;;;;7.30;4.30;;;11.80;99.90;;;;;;5124766;27;20027;-61
2023/09/24 02:27:58;;;;;;;6.97;4.70;;;11.80;99.90;;;;;;5124788;27;20031;-61
2023/09/24 02:30:29;;;;;;;9.13;4.90;;;11.80;99.90;;;;;;5124759;28;20036;-63
2023/09/24 02:32:56;;;;;;;6.97;5.13;;;11.70;99.90;;;;;;5124597;28;20035;-61
2023/09/24 02:35:22;;;;;;;8.95;5.38;;;11.80;99.90;;;;;;5125517;28;20567;-63
2023/09/24 02:37:52;;;;;;;7.93;3.40;;;11.70;99.90;;;;;;5124420;28;20039;-63
2023/09/24 02:40:28;;;;;;;8.68;5.50;;;11.70;99.90;;;;;;5125486;28;20039;-63
2023/09/24 02:42:55;;;;;;;8.60;5.07;;;11.60;99.90;;;;;;5107462;28;20066;-61
2023/09/24 02:45:22;;;;;;;7.43;5.65;;;11.60;99.90;;;;;;5124698;28;20095;-63
2023/09/24 02:47:51;;;;;;;8.90;5.60;;;11.50;99.90;;;;;;5122882;27;20047;-62
2023/09/24 02:50:23;;;;;;;10.50;5.88;;;11.50;99.90;;;;;;5124277;28;20031;-62
2023/09/24 02:52:53;;;;;;;9.82;6.00;;;11.50;99.90;;;;;;5124503;28;20078;-61
2023/09/24 02:55:19;;;;;;;11.32;6.20;;;11.60;99.90;;;;;;5124475;28;20050;-63
2023/09/24 02:57:46;;;;;;;13.32;3.80;;;11.50;99.90;;;;;;5123395;28;20027;-62
2023/09/24 03:00:19;;;;;;;8.93;6.60;;;11.40;99.90;;;;;;5123625;27;20544;-63
2023/09/24 03:02:48;;;;;;;9.90;3.72;;;11.40;99.90;;;;;;5127117;27;20031;-62
2023/09/24 03:05:20;;;;;;;11.57;6.35;;;11.50;99.90;;;;;;5128147;27;20031;-62
2023/09/24 03:07:50;;;;;;;11.30;7.00;;;11.40;99.90;;;;;;5127569;27;20031;-62
2023/09/24 03:10:16;;;;;;;10.52;7.25;;;11.40;99.90;;;;;;5127479;27;20086;-63
2023/09/24 03:12:46;;;;;;;11.68;6.70;;;11.30;99.90;;;;;;5107894;27;20054;-61
2023/09/24 03:15:12;;;;;;;10.52;7.18;;;11.30;99.90;;;;;;5128110;27;20695;-61
2023/09/24 03:17:39;;;;;;;9.85;6.88;;;11.20;99.90;;;;;;5127188;27;20049;-63
2023/09/24 03:20:11;;;;;;;12.13;4.30;;;11.40;99.90;;;;;;5126621;27;20054;-61
2023/09/24 03:22:37;;;;;;;9.75;6.78;;;11.20;99.90;;;;;;5127187;27;20045;-63
2023/09/24 03:25:03;;;;;;;9.88;7.13;;;11.20;99.90;;;;;;5128305;27;20027;-62
2023/09/24 03:27:29;;;;;;;8.00;4.03;;;11.10;99.90;;;;;;5127465;27;20049;-62
2023/09/24 03:29:55;;;;;;;12.25;7.60;;;11.20;99.90;;;;;;5127842;27;20043;-61
2023/09/24 03:32:20;;;;;;;10.00;4.28;;;11.20;99.90;;;;;;5128611;27;20057;-63
2023/09/24 03:34:46;;;;;;;11.43;4.43;;;11.20;99.90;;;;;;5128397;27;20039;-62
2023/09/24 03:37:14;;;;;;;10.35;7.15;;;11.10;99.90;;;;;;5128201;27;20035;-62
2023/09/24 03:39:40;;;;;;;9.60;7.15;;;11.10;99.90;;;;;;5127985;27;20706;-62
2023/09/24 03:42:06;;;;;;;12.07;7.50;;;11.00;99.90;;;;;;5128397;27;20475;-62
2023/09/24 03:44:32;;;;;;;10.85;3.90;;;11.20;99.90;;;;;;5128303;27;20031;-64
2023/09/24 03:46:57;;;;;;;10.82;7.15;;;11.00;99.90;;;;;;5127382;27;20474;-62
2023/09/24 03:49:23;;;;;;;11.38;7.78;;;11.10;99.90;;;;;;5091618;27;20027;-62
2023/09/24 03:51:49;;;;;;;8.93;4.60;;;11.00;99.90;;;;;;5109137;27;20411;-62
2023/09/24 03:54:16;;;;;;;11.43;7.63;;;11.10;99.90;;;;;;5107888;27;20055;-62
2023/09/24 03:56:42;;;;;;;11.32;7.95;;;11.10;99.90;;;;;;5127131;27;20058;-62
2023/09/24 03:59:07;;;;;;;13.20;4.70;;;11.00;99.90;;;;;;5127012;27;20031;-62
2023/09/24 04:01:33;;;;;;;11.27;4.40;;;11.10;99.90;;;;;;5128043;27;20497;-63
2023/09/24 04:04:00;;;;;;;15.05;8.48;;;11.00;99.90;;;;;;5107506;27;20072;-61
2023/09/24 04:06:25;;;;;;;12.63;8.05;;;11.00;99.90;;;;;;5127432;27;20641;-61
2023/09/24 04:08:51;;;;;;;11.88;8.40;;;10.90;99.90;;;;;;5126131;27;20118;-63
2023/09/24 04:11:17;;;;;;;13.65;8.43;;;10.90;99.90;;;;;;5126690;27;20151;-62
2023/09/24 04:13:43;;;;;;;9.93;8.07;;;11.00;99.90;;;;;;5125492;27;20058;-63
2023/09/24 04:16:10;;;;;;;11.15;7.97;;;10.90;99.90;;;;;;5127033;27;20077;-63
2023/09/24 04:18:37;;;;;;;14.65;4.95;;;10.90;99.90;;;;;;5126939;27;20062;-63
2023/09/24 04:21:03;;;;;;;12.85;8.65;;;10.80;99.90;;;;;;5125996;27;20095;-62
2023/09/24 04:23:28;;;;;;;16.52;8.45;;;10.90;99.90;;;;;;5104758;27;20131;-63
2023/09/24 04:25:54;;;;;;;11.43;9.00;;;10.90;99.90;;;;;;5124460;27;20432;-62
2023/09/24 04:28:20;;;;;;;13.70;9.45;;;10.90;99.90;;;;;;5122927;27;20458;-62
2023/09/24 04:30:46;;;;;;;10.18;5.20;;;10.80;99.90;;;;;;5125415;27;20421;-63
2023/09/24 04:33:12;;;;;;;14.13;5.63;;;10.80;99.90;;;;;;5105265;27;20039;-62
2023/09/24 04:35:38;;;;;;;13.70;9.07;;;10.70;99.90;;;;;;5106177;27;20055;-63
2023/09/24 04:38:06;;;;;;;15.60;9.65;;;10.70;99.90;;;;;;5101903;27;20083;-62
2023/09/24 04:40:33;;;;;;;11.02;5.28;;;10.70;99.90;;;;;;5107744;27;20518;-63
2023/09/24 04:42:59;;;;;;;13.25;6.20;;;10.70;99.90;;;;;;5126904;27;20106;-63
2023/09/24 04:45:25;;;;;;;14.60;9.27;;;10.60;99.90;;;;;;5108047;27;20138;-63
2023/09/24 04:47:51;;;;;;;11.73;5.50;;;10.60;99.90;;;;;;5126249;27;20043;-61
2023/09/24 04:50:18;;;;;;;18.05;9.40;;;10.70;99.90;;;;;;5126339;27;20047;-61
2023/09/24 04:52:47;;;;;;;14.02;6.00;;;10.50;99.90;;;;;;5126065;27;20407;-61
2023/09/24 04:55:13;;;;;;;14.48;9.80;;;10.60;99.90;;;;;;5126456;27;20120;-63
2023/09/24 04:57:39;;;;;;;14.45;10.23;;;10.60;99.90;;;;;;5107639;27;20118;-62
2023/09/24 05:00:05;;;;;;;15.02;10.65;;;10.70;99.90;;;;;;5125132;27;20114;-63
2023/09/24 05:02:31;;;;;;;13.75;5.95;;;10.50;99.90;;;;;;5126535;27;20054;-62
2023/09/24 05:04:57;;;;;;;16.08;11.30;;;10.50;99.90;;;;;;5126105;27;20035;-63
2023/09/24 05:07:22;;;;;;;16.05;11.00;;;10.60;99.90;;;;;;5107377;27;20037;-62
2023/09/24 05:09:50;;;;;;;13.63;5.60;;;10.60;99.90;;;;;;5090480;27;20046;-62
2023/09/24 05:12:16;;;;;;;12.95;6.80;;;10.50;99.90;;;;;;5125089;27;20062;-62
2023/09/24 05:14:42;;;;;;;15.18;10.68;;;10.50;99.90;;;;;;5124931;27;20047;-62
2023/09/24 05:17:08;;;;;;;15.82;7.05;;;10.30;99.90;;;;;;5124284;27;20039;-61
2023/09/24 05:19:33;;;;;;;16.58;11.57;;;10.30;99.90;;;;;;5125671;27;20043;-61
2023/09/24 05:21:59;;;;;;;14.25;6.65;;;10.30;99.90;;;;;;5124923;27;20059;-60
2023/09/24 05:24:25;;;;;;;16.50;11.85;;;10.50;99.90;;;;;;5124592;27;20042;-61
2023/09/24 05:26:50;;;;;;;16.80;11.93;;;10.30;99.90;;;;;;5089402;27;20046;-62
2023/09/24 05:29:16;;;;;;;15.68;7.00;;;10.30;99.90;;;;;;5124486;27;20039;-62
2023/09/24 05:31:41;;;;;;;15.32;11.50;;;10.30;99.90;;;;;;5125375;27;20118;-62
2023/09/24 05:34:07;;;;;;;17.67;12.07;;;10.20;99.90;;;;;;5106120;27;20042;-61
2023/09/24 05:36:33;;;;;;;16.85;11.82;;;10.40;99.90;;;;;;5125091;27;20034;-63
2023/09/24 05:38:59;;;;;;;11.65;5.75;;;10.30;99.90;;;;;;5123968;27;20038;-62
2023/09/24 05:41:25;;;;;;;16.58;7.13;;;10.40;99.90;;;;;;5124264;27;20378;-62
2023/09/24 05:43:53;;;;;;;17.85;7.78;;;10.30;99.90;;;;;;5125033;27;20019;-62
2023/09/24 05:46:19;;;;;;;16.60;11.02;;;10.30;99.90;;;;;;5124422;27;20047;-62
2023/09/24 05:48:44;;;;;;;16.58;11.90;;;10.40;99.90;;;;;;5125170;27;20183;-62
2023/09/24 05:51:10;;;;;;;15.38;10.93;;;10.50;99.90;;;;;;5124625;27;20035;-62
2023/09/24 05:53:36;;;;;;;19.40;12.40;;;10.30;99.90;;;;;;5106021;27;20644;-62
2023/09/24 05:56:02;;;;;;;17.45;12.38;;;10.20;99.90;;;;;;5124209;27;20386;-61
2023/09/24 05:58:28;;;;;;;13.68;11.80;;;10.30;99.90;;;;;;5125163;27;20046;-63
2023/09/24 06:00:55;;;;;;;18.00;12.27;;;10.30;99.90;;;;;;5106209;27;20035;-63
2023/09/24 06:03:21;;;;;;;16.00;11.93;;;10.30;99.90;;;;;;5125167;27;20035;-62
2023/09/24 06:05:47;;;;;;;15.75;6.88;;;10.50;99.90;;;;;;5125053;27;20095;-62
2023/09/24 06:08:13;;;;;;;16.63;6.45;;;10.30;99.90;;;;;;5125193;27;20038;-62
2023/09/24 06:10:45;;;;;;;18.13;8.05;;;10.30;99.90;;;;;;5125520;27;20031;-62
2023/09/24 06:13:13;;;;;;;18.63;12.43;;;10.40;99.90;;;;;;5124288;27;20047;-61
2023/09/24 06:15:41;;;;;;;17.80;7.75;;;10.50;99.90;;;;;;5124787;27;20055;-63
2023/09/24 06:18:06;;;;;;;16.73;8.02;;;10.50;99.90;;;;;;5124885;27;20083;-62
2023/09/24 06:20:40;;;;;;;14.45;7.75;;;10.50;99.90;;;;;;5124816;27;20494;-60
2023/09/24 06:23:06;;;;;;;21.67;12.77;;;10.40;99.90;;;;;;5102923;28;20091;-62
2023/09/24 06:25:33;;;;;;;17.38;7.97;;;10.50;99.90;;;;;;5122805;27;20051;-62
2023/09/24 06:27:59;;;;;;;18.08;13.02;;;10.60;99.90;;;;;;5103053;28;20175;-63
2023/09/24 06:30:24;;;;;;;18.02;12.48;;;10.50;99.90;;;;;;5120921;28;20039;-63
2023/09/24 06:32:50;;;;;;;15.80;6.90;;;10.70;99.90;;;;;;5121419;28;20386;-63
2023/09/24 06:35:16;;;;;;;17.95;13.13;;;10.60;99.90;;;;;;5121959;27;20462;-62
2023/09/24 06:37:41;;;;;;;13.65;7.25;;;10.60;99.90;;;;;;5126753;27;20239;-62
2023/09/24 06:40:09;;;;;;;19.35;13.07;;;10.60;99.90;;;;;;5109950;27;20039;-63
2023/09/24 06:42:36;;;;;;;15.32;7.88;;;10.80;99.90;;;;;;5127895;27;20070;-62
2023/09/24 06:45:02;;;;;;;20.20;12.18;;;10.80;99.90;;;;;;5125873;27;20042;-63
2023/09/24 06:47:27;;;;;;;12.13;7.22;;;10.70;99.90;;;;;;5125397;27;20741;-62
2023/09/24 06:49:53;;;;;;;16.15;12.23;;;10.90;99.90;;;;;;5127240;27;20035;-61
2023/09/24 06:52:19;;;;;;;16.63;11.50;;;10.90;99.90;;;;;;5127329;27;20031;-62
2023/09/24 06:54:44;;;;;;;16.13;11.63;;;10.80;99.90;;;;;;5126005;27;20491;-63
2023/09/24 06:57:10;;;;;;;15.85;11.93;;;10.90;99.90;;;;;;5126862;27;20070;-63
2023/09/24 06:59:35;;;;;;;16.17;12.68;;;11.00;99.90;;;;;;5125273;27;20470;-62
2023/09/24 07:02:01;;;;;;;16.10;12.27;;;11.00;99.90;;;;;;5126680;27;20087;-63
2023/09/24 07:04:27;;;;;;;14.95;6.88;;;11.00;99.90;;;;;;5126038;27;20034;-63
2023/09/24 07:06:53;;;;;;;16.13;11.98;;;11.10;99.90;;;;;;5109002;27;20047;-63
2023/09/24 07:09:19;;;;;;;14.38;7.05;;;11.10;99.90;;;;;;5125594;27;20082;-62
2023/09/24 07:11:45;;;;;;;16.02;7.75;;;11.10;99.90;;;;;;5126465;27;20114;-62
2023/09/24 07:14:10;;;;;;;16.02;8.18;;;11.10;99.90;;;;;;5107474;27;20526;-61
2023/09/24 07:16:36;;;;;;;17.70;12.25;;;11.10;99.90;;;;;;5127320;27;20043;-62
2023/09/24 07:19:03;;;;;;;15.95;8.13;;;11.20;99.90;;;;;;5107004;27;20038;-62
2023/09/24 07:21:30;;;;;;;19.02;12.32;;;11.20;99.90;;;;;;5126916;27;20475;-63
2023/09/24 07:23:58;;;;;;;15.82;11.57;;;11.30;99.90;;;;;;5126144;27;20529;-61
2023/09/24 07:26:25;;;;;;;15.45;11.55;;;11.40;99.90;;;;;;5108505;27;20495;-62
2023/09/24 07:28:51;;;;;;;15.15;12.27;;;11.30;99.90;;;;;;5126736;27;20031;-62
2023/09/24 07:31:21;;;;;;;18.77;12.98;;;11.50;99.90;;;;;;5125967;27;20043;-61
2023/09/24 07:33:51;;;;;;;19.08;7.72;;;11.40;99.90;;;;;;5127982;27;20498;-62
2023/09/24 07:36:18;;;;;;;16.00;11.50;;;11.50;99.90;;;;;;5125654;27;20390;-62
2023/09/24 07:38:44;;;;;;;18.05;12.13;;;11.60;99.90;;;;;;5123478;27;20038;-63
2023/09/24 07:41:13;;;;;;;15.43;11.65;;;11.70;99.90;;;;;;5124438;27;20104;-62
2023/09/24 07:43:41;;;;;;;18.15;11.75;;;11.80;99.90;;;;;;5125011;27;20042;-62
2023/09/24 07:46:12;;;;;;;17.63;8.82;;;11.70;99.90;;;;;;5100697;27;20031;-62
2023/09/24 07:48:39;;;;;;;15.18;7.35;;;11.90;99.90;;;;;;5123032;27;20054;-63
2023/09/24 07:51:05;;;;;;;15.05;11.18;;;11.80;99.90;;;;;;5124056;27;20122;-63
2023/09/24 07:53:31;;;;;;;18.35;11.38;;;12.00;99.90;;;;;;5123210;27;20042;-62
2023/09/24 07:56:02;;;;;;;13.80;7.93;;;12.00;99.90;;;;;;5123194;27;20121;-62
2023/09/24 07:58:30;;;;;;;16.00;7.68;;;12.20;99.90;;;;;;5106676;27;20051;-63
2023/09/24 08:01:10;;;;;;;15.02;10.68;;;12.20;99.90;;;;;;5122803;27;20035;-61
2023/09/24 08:03:39;;;;;;;18.63;8.30;;;12.50;99.90;;;;;;5122698;27;20034;-62
2023/09/24 08:06:05;;;;;;;14.02;9.80;;;12.40;99.90;;;;;;5107075;27;20117;-62
2023/09/24 08:08:34;;;;;;;13.68;9.63;;;12.50;99.90;;;;;;5123074;27;20051;-62
2023/09/24 08:11:00;;;;;;;17.05;7.07;;;12.60;99.90;;;;;;5123226;27;20039;-62
2023/09/24 08:13:27;;;;;;;12.00;6.28;;;12.60;99.90;;;;;;5104722;27;20440;-64
2023/09/24 08:15:55;;;;;;;14.13;6.90;;;12.70;99.90;;;;;;5122546;27;20351;-63
2023/09/24 08:18:20;;;;;;;12.98;9.20;;;12.80;99.90;;;;;;5119553;27;20478;-64
2023/09/24 08:20:46;;;;;;;15.48;9.63;;;12.90;99.90;;;;;;5119998;27;20108;-63
2023/09/24 08:23:13;;;;;;;15.25;9.73;;;12.90;99.90;;;;;;5122546;27;20042;-62
2023/09/24 08:25:40;;;;;;;15.77;9.63;;;13.00;99.90;;;;;;5123103;27;20066;-61
2023/09/24 08:28:06;;;;;;;13.60;9.05;;;13.10;99.90;;;;;;5123882;27;20054;-62
2023/09/24 08:30:33;;;;;;;16.25;6.50;;;13.30;99.90;;;;;;5123105;27;20031;-63
2023/09/24 08:32:59;;;;;;;11.40;7.88;;;13.30;99.90;;;;;;5123276;27;20488;-63
2023/09/24 08:35:26;;;;;;;13.70;6.10;;;13.40;99.90;;;;;;5106608;27;20039;-62
2023/09/24 08:37:52;;;;;;;12.73;6.78;;;13.50;99.90;;;;;;5105596;27;20410;-62
2023/09/24 08:40:18;;;;;;;13.80;6.80;;;13.60;99.90;;;;;;5123483;27;20039;-64
2023/09/24 08:42:49;;;;;;;12.73;6.80;;;13.70;99.90;;;;;;5122789;27;20371;-63
2023/09/24 08:45:18;;;;;;;15.40;6.68;;;13.70;99.90;;;;;;5104268;27;20474;-62
2023/09/24 08:47:45;;;;;;;11.88;7.75;;;13.90;99.90;;;;;;5123501;27;20466;-63
2023/09/24 08:50:11;;;;;;;12.73;7.47;;;14.10;99.90;;;;;;5123179;27;20042;-63
2023/09/24 08:52:39;;;;;;;12.65;7.20;;;14.20;99.90;;;;;;5123306;27;20110;-64
2023/09/24 08:55:09;;;;;;;9.68;6.10;;;14.40;99.90;;;;;;5122338;27;20031;-61
2023/09/24 08:57:39;;;;;;;14.13;4.90;;;14.50;99.90;;;;;;5122565;27;20035;-64
2023/09/24 09:00:09;;;;;;;14.55;5.18;;;14.50;99.90;;;;;;5101851;27;20134;-63
2023/09/24 09:02:35;;;;;;;10.57;5.25;;;14.60;99.90;;;;;;5103974;27;20122;-63
2023/09/24 09:05:04;;;;;;;10.43;5.25;;;14.70;99.90;;;;;;5122560;27;20118;-61
2023/09/24 09:07:30;;;;;;;9.27;4.93;;;14.80;99.90;;;;;;5104660;27;20035;-62
2023/09/24 09:09:59;;;;;;;10.45;5.70;;;14.90;99.90;;;;;;5122732;27;20042;-64
2023/09/24 09:12:28;;;;;;;11.88;5.13;;;15.00;99.90;;;;;;5123474;27;20043;-63
2023/09/24 09:14:55;;;;;;;11.23;5.53;;;15.10;99.90;;;;;;5104271;27;20043;-63
2023/09/24 09:17:22;;;;;;;12.38;4.80;;;15.20;99.90;;;;;;5122404;27;20080;-63
2023/09/24 09:19:57;;;;;;;6.50;3.90;;;15.40;99.90;;;;;;5105530;27;20113;-62
2023/09/24 09:22:27;;;;;;;8.68;3.88;;;15.40;99.90;;;;;;5103836;27;20047;-61
2023/09/24 09:25:09;;;;;;;9.98;4.00;;;15.50;99.90;;;;;;5122568;27;20046;-63
2023/09/24 09:27:43;;;;;;;9.15;4.50;;;15.50;99.90;;;;;;5122346;27;20035;-63
2023/09/24 09:30:15;;;;;;;9.20;4.57;;;15.60;99.90;;;;;;5122465;27;20423;-61
2023/09/24 09:32:43;;;;;;;7.75;4.10;;;15.70;99.90;;;;;;5122252;27;20043;-63
2023/09/24 09:35:09;;;;;;;10.40;3.90;;;15.80;99.90;;;;;;5121139;27;20047;-63
2023/09/24 09:37:35;;;;;;;8.32;3.60;;;15.70;99.90;;;;;;5123407;27;20053;-62
2023/09/24 09:40:01;;;;;;;10.85;2.83;;;15.80;99.90;;;;;;5121702;27;20027;-63
2023/09/24 09:42:34;;;;;;;5.68;3.42;;;15.80;99.90;;;;;;5121346;27;20088;-62
2023/09/24 09:45:08;;;;;;;6.57;3.03;;;15.80;99.90;;;;;;5121850;27;20054;-63
2023/09/24 09:47:54;;;;;;;10.57;2.72;;;15.90;99.90;;;;;;5121053;27;20164;-64
2023/09/24 09:50:25;;;;;;;9.85;3.28;;;16.00;99.90;;;;;;5121848;27;20042;-63
2023/09/24 09:52:54;;;;;;;8.57;3.20;;;16.00;99.90;;;;;;5119967;27;20088;-63
2023/09/24 09:55:20;;;;;;;9.02;3.38;;;16.00;99.90;;;;;;5121387;27;20047;-63
2023/09/24 09:57:47;;;;;;;10.95;2.83;;;16.10;99.90;;;;;;5121375;27;20028;-62
2023/09/24 10:00:16;;;;;;;6.57;3.00;;;16.10;99.90;;;;;;5120401;27;20031;-62
2023/09/24 10:02:43;;;;;;;9.32;2.70;;;16.30;99.90;;;;;;5119664;27;20106;-63
2023/09/24 10:05:11;;;;;;;7.15;2.50;;;16.30;99.90;;;;;;5119328;27;20039;-63
2023/09/24 10:07:38;;;;;;;8.35;2.90;;;16.40;99.90;;;;;;5120796;27;20054;-63
2023/09/24 10:10:30;;;;;;;7.13;2.53;;;16.40;99.90;;;;;;5120596;27;20117;-64
2023/09/24 10:12:57;;;;;;;7.45;2.38;;;16.50;99.90;;;;;;5112924;27;20409;-64
2023/09/24 10:15:27;;;;;;;8.05;2.92;;;16.70;99.90;;;;;;5119993;27;21663;-63
2023/09/24 10:18:11;;;;;;;6.47;2.63;;;16.70;99.90;;;;;;5104652;28;20466;-62
2023/09/24 10:20:49;;;;;;;8.10;2.60;;;16.80;99.90;;;;;;5121940;27;20043;-63
2023/09/24 10:23:33;;;;;;;6.38;2.28;;;16.90;99.90;;;;;;5120558;27;20059;-63
2023/09/24 10:26:00;;;;;;;6.93;2.30;;;16.90;99.90;;;;;;5120801;27;20181;-63
2023/09/24 10:28:49;;;;;;;7.57;2.03;;;16.90;99.90;;;;;;5120622;27;20118;-63
2023/09/24 10:31:21;;;;;;;7.47;1.88;;;17.00;99.90;;;;;;5120857;27;20126;-64
2023/09/24 10:34:02;;;;;;;5.95;2.10;;;17.10;99.90;;;;;;5121102;27;20039;-63
2023/09/24 10:36:30;;;;;;;5.25;1.70;;;17.20;99.90;;;;;;5120660;28;20043;-62
2023/09/24 10:39:06;;;;;;;5.15;1.88;;;17.40;99.90;;;;;;5103454;28;20043;-64
2023/09/24 10:41:33;;;;;;;6.32;1.75;;;17.50;99.90;;;;;;5119461;28;20035;-64
2023/09/24 10:44:24;;;;;;;5.90;1.80;;;17.70;99.90;;;;;;5120422;27;20110;-63
2023/09/24 10:46:50;;;;;;;7.68;2.28;;;17.80;99.90;;;;;;5119022;28;20037;-64
2023/09/24 10:49:21;;;;;;;6.35;1.90;;;18.00;99.90;;;;;;5118910;28;20078;-65
2023/09/24 10:51:47;;;;;;;4.82;1.85;;;18.00;99.90;;;;;;5117775;28;20030;-63
2023/09/24 10:54:15;;;;;;;4.55;1.70;;;18.00;99.90;;;;;;5120553;27;20039;-63
2023/09/24 10:56:46;;;;;;;6.22;1.92;;;18.10;99.90;;;;;;5119563;27;20093;-64
2023/09/24 10:59:13;;;;;;;6.72;1.73;;;18.20;99.90;;;;;;5103553;28;20092;-63
2023/09/24 11:01:40;;;;;;;5.68;1.60;;;18.20;99.90;;;;;;5119730;28;20044;-64
2023/09/24 11:04:08;;;;;;;6.82;2.03;;;18.30;99.90;;;;;;5120602;28;20050;-62
2023/09/24 11:06:33;;;;;;;4.78;2.20;;;18.40;99.90;;;;;;5120383;28;20043;-63
2023/09/24 11:09:21;;;;;;;4.88;1.80;;;18.40;99.90;;;;;;5084487;27;20028;-62
2023/09/24 11:11:47;;;;;;;7.32;1.98;;;18.40;99.90;;;;;;5121634;28;20049;-63
2023/09/24 11:14:22;;;;;;;4.97;1.33;;;18.50;99.90;;;;;;5104854;28;20047;-64
2023/09/24 11:16:53;;;;;;;7.60;1.83;;;18.60;99.90;;;;;;5119643;27;20475;-63
2023/09/24 11:19:44;;;;;;;5.60;1.92;;;18.80;99.90;;;;;;5120230;28;20511;-63
2023/09/24 11:22:16;;;;;;;4.85;1.50;;;18.90;99.90;;;;;;5121647;27;20046;-63
2023/09/24 11:24:43;;;;;;;6.10;1.65;;;19.00;99.90;;;;;;5124936;27;20122;-63
2023/09/24 11:27:08;;;;;;;6.20;1.67;;;19.10;99.90;;;;;;5123314;27;20062;-63
2023/09/24 11:29:35;;;;;;;8.15;1.92;;;19.20;99.90;;;;;;5123175;27;21398;-65
2023/09/24 11:32:00;;;;;;;5.88;1.60;;;19.40;99.90;;;;;;5122686;27;20047;-64
2023/09/24 11:34:27;;;;;;;5.68;1.52;;;19.60;99.90;;;;;;5123659;27;20054;-63
2023/09/24 11:36:56;;;;;;;6.97;1.60;;;19.70;99.90;;;;;;5105728;27;20050;-62
2023/09/24 11:39:22;;;;;;;5.30;1.30;;;19.90;99.90;;;;;;5123960;27;20027;-63
2023/09/24 11:41:49;;;;;;;6.40;1.45;;;20.00;99.90;;;;;;5123393;27;20485;-62
2023/09/24 11:44:16;;;;;;;5.72;1.73;;;20.00;99.90;;;;;;5124903;27;20039;-64
2023/09/24 11:46:43;;;;;;;6.05;1.65;;;19.90;99.90;;;;;;5123764;27;20042;-62
2023/09/24 11:49:09;;;;;;;5.43;1.50;;;19.80;99.90;;;;;;5124596;27;20046;-64
2023/09/24 11:51:35;;;;;;;6.65;1.80;;;19.70;99.90;;;;;;5124317;27;20385;-62
2023/09/24 11:54:02;;;;;;;5.53;1.50;;;19.50;99.90;;;;;;5124441;27;20035;-62
2023/09/24 11:56:29;;;;;;;6.68;1.60;;;19.30;99.90;;;;;;5105567;27;20051;-64
2023/09/24 11:58:55;;;;;;;4.32;1.38;;;19.10;99.90;;;;;;5123756;27;20050;-63
2023/09/24 12:01:21;;;;;;;5.05;1.65;;;19.00;99.90;;;;;;5123088;27;20027;-63
2023/09/24 12:03:47;;;;;;;5.03;1.60;;;19.00;99.90;;;;;;5105304;27;20112;-63
2023/09/24 12:06:13;;;;;;;5.82;1.40;;;19.00;99.90;;;;;;5124194;27;20081;-63
2023/09/24 12:08:39;;;;;;;5.20;1.30;;;19.00;99.90;;;;;;5122870;27;20067;-61
2023/09/24 12:11:05;;;;;;;5.00;1.42;;;19.10;99.90;;;;;;5124248;27;20390;-63
2023/09/24 12:13:31;;;;;;;6.57;1.75;;;19.30;99.90;;;;;;5122166;27;20055;-63
2023/09/24 12:15:59;;;;;;;6.57;1.58;;;19.50;99.90;;;;;;5122316;27;20058;-62
2023/09/24 12:18:27;;;;;;;5.55;1.85;;;19.80;99.90;;;;;;5122570;27;20035;-63
2023/09/24 12:20:57;;;;;;;4.82;1.42;;;19.90;99.90;;;;;;5105494;27;20035;-63
2023/09/24 12:23:23;;;;;;;5.03;1.60;;;20.00;99.90;;;;;;5122012;27;20046;-63
2023/09/24 12:25:48;;;;;;;5.88;1.55;;;19.80;99.90;;;;;;5124581;27;20023;-62
2023/09/24 12:28:15;;;;;;;5.88;1.45;;;19.70;99.90;;;;;;5124277;27;20104;-63
2023/09/24 12:30:43;;;;;;;4.63;1.52;;;19.70;99.90;;;;;;5125404;27;20043;-60
2023/09/24 12:33:09;;;;;;;5.45;1.48;;;19.80;99.90;;;;;;5088993;28;20035;-61
2023/09/24 12:35:37;;;;;;;6.05;1.52;;;19.90;99.90;;;;;;5107860;27;20046;-62
2023/09/24 12:38:03;;;;;;;5.22;1.30;;;20.20;99.90;;;;;;5125483;27;20038;-61
2023/09/24 12:40:29;;;;;;;4.65;1.60;;;20.50;99.90;;;;;;5126387;27;20035;-62
2023/09/24 12:42:55;;;;;;;4.18;1.42;;;20.70;99.90;;;;;;5126605;27;20068;-61